sensor_id;sensor_type;location;lat;lon;timestamp;P1;durP1;ratioP1;P2;durP2;ratioP2
50267;SDS011;36153;50.960;6.220;2023-04-05T00:00:37;6.13;;;3.90;;
50267;SDS011;36153;50.960;6.220;2023-04-05T00:03:38;6.57;;;3.63;;
50267;SDS011;36153;50.960;6.220;2023-04-05T00:06:39;7.68;;;4.55;;
50267;SDS011;36153;50.960;6.220;2023-04-05T00:09:42;7.85;;;3.30;;
50267;SDS011;36153;50.960;6.220;2023-04-05T00:12:43;6.25;;;3.38;;
50267;SDS011;36153;50.960;6.220;2023-04-05T00:15:43;7.07;;;3.53;;
50267;SDS011;36153;50.960;6.220;2023-04-05T00:18:44;5.75;;;3.60;;
50267;SDS011;36153;50.960;6.220;2023-04-05T00:21:48;7.43;;;4.70;;
50267;SDS011;36153;50.960;6.220;2023-04-05T00:24:49;7.00;;;4.68;;
50267;SDS011;36153;50.960;6.220;2023-04-05T00:27:49;7.75;;;4.18;;
50267;SDS011;36153;50.960;6.220;2023-04-05T00:30:51;7.97;;;4.22;;
50267;SDS011;36153;50.960;6.220;2023-04-05T00:33:51;7.53;;;3.72;;
50267;SDS011;36153;50.960;6.220;2023-04-05T00:36:52;6.97;;;3.85;;
50267;SDS011;36153;50.960;6.220;2023-04-05T00:39:52;8.65;;;4.55;;
50267;SDS011;36153;50.960;6.220;2023-04-05T00:42:52;9.75;;;4.85;;
50267;SDS011;36153;50.960;6.220;2023-04-05T00:45:53;10.13;;;5.22;;
50267;SDS011;36153;50.960;6.220;2023-04-05T00:48:55;10.25;;;5.30;;
50267;SDS011;36153;50.960;6.220;2023-04-05T00:51:55;9.30;;;4.47;;
50267;SDS011;36153;50.960;6.220;2023-04-05T00:54:57;8.55;;;4.40;;
50267;SDS011;36153;50.960;6.220;2023-04-05T00:57:58;8.88;;;5.20;;
50267;SDS011;36153;50.960;6.220;2023-04-05T01:04:29;10.65;;;5.45;;
50267;SDS011;36153;50.960;6.220;2023-04-05T01:07:35;7.95;;;4.57;;
50267;SDS011;36153;50.960;6.220;2023-04-05T01:10:42;15.88;;;4.97;;
50267;SDS011;36153;50.960;6.220;2023-04-05T01:13:46;8.60;;;5.68;;
50267;SDS011;36153;50.960;6.220;2023-04-05T01:16:46;7.97;;;4.78;;
50267;SDS011;36153;50.960;6.220;2023-04-05T01:19:52;14.75;;;5.88;;
50267;SDS011;36153;50.960;6.220;2023-04-05T01:29:46;9.88;;;4.28;;
50267;SDS011;36153;50.960;6.220;2023-04-05T01:36:30;9.73;;;5.03;;
50267;SDS011;36153;50.960;6.220;2023-04-05T01:39:38;9.55;;;4.70;;
50267;SDS011;36153;50.960;6.220;2023-04-05T01:42:39;8.60;;;4.57;;
50267;SDS011;36153;50.960;6.220;2023-04-05T01:45:42;7.75;;;5.30;;
50267;SDS011;36153;50.960;6.220;2023-04-05T01:48:44;11.32;;;6.30;;
50267;SDS011;36153;50.960;6.220;2023-04-05T01:51:45;11.82;;;5.15;;
50267;SDS011;36153;50.960;6.220;2023-04-05T01:54:45;10.27;;;5.85;;
50267;SDS011;36153;50.960;6.220;2023-04-05T01:57:46;9.60;;;5.40;;
50267;SDS011;36153;50.960;6.220;2023-04-05T02:00:46;7.40;;;5.45;;
50267;SDS011;36153;50.960;6.220;2023-04-05T02:03:46;7.72;;;5.10;;
50267;SDS011;36153;50.960;6.220;2023-04-05T02:06:47;9.93;;;5.10;;
50267;SDS011;36153;50.960;6.220;2023-04-05T02:09:47;16.35;;;5.93;;
50267;SDS011;36153;50.960;6.220;2023-04-05T02:12:47;8.57;;;5.43;;
50267;SDS011;36153;50.960;6.220;2023-04-05T02:15:48;10.88;;;5.80;;
50267;SDS011;36153;50.960;6.220;2023-04-05T02:18:49;11.57;;;5.32;;
50267;SDS011;36153;50.960;6.220;2023-04-05T02:21:49;10.57;;;5.22;;
50267;SDS011;36153;50.960;6.220;2023-04-05T02:24:52;12.52;;;5.75;;
50267;SDS011;36153;50.960;6.220;2023-04-05T02:27:52;11.77;;;5.68;;
50267;SDS011;36153;50.960;6.220;2023-04-05T02:30:53;9.10;;;5.47;;
50267;SDS011;36153;50.960;6.220;2023-04-05T02:33:53;10.85;;;6.43;;
50267;SDS011;36153;50.960;6.220;2023-04-05T02:36:55;7.57;;;4.78;;
50267;SDS011;36153;50.960;6.220;2023-04-05T02:39:55;8.27;;;5.75;;
50267;SDS011;36153;50.960;6.220;2023-04-05T02:42:56;11.13;;;5.50;;
50267;SDS011;36153;50.960;6.220;2023-04-05T02:45:56;10.77;;;5.25;;
50267;SDS011;36153;50.960;6.220;2023-04-05T02:48:57;10.38;;;6.15;;
50267;SDS011;36153;50.960;6.220;2023-04-05T02:51:57;9.50;;;6.22;;
50267;SDS011;36153;50.960;6.220;2023-04-05T02:54:57;8.48;;;4.72;;
50267;SDS011;36153;50.960;6.220;2023-04-05T02:57:58;12.82;;;5.53;;
50267;SDS011;36153;50.960;6.220;2023-04-05T03:04:05;14.27;;;5.50;;
50267;SDS011;36153;50.960;6.220;2023-04-05T03:07:06;7.18;;;4.85;;
50267;SDS011;36153;50.960;6.220;2023-04-05T03:10:07;9.18;;;4.93;;
50267;SDS011;36153;50.960;6.220;2023-04-05T03:13:08;10.82;;;5.32;;
50267;SDS011;36153;50.960;6.220;2023-04-05T03:16:08;7.97;;;5.68;;
50267;SDS011;36153;50.960;6.220;2023-04-05T03:19:09;7.88;;;5.75;;
50267;SDS011;36153;50.960;6.220;2023-04-05T03:22:09;8.57;;;5.82;;
50267;SDS011;36153;50.960;6.220;2023-04-05T03:25:10;8.00;;;6.15;;
50267;SDS011;36153;50.960;6.220;2023-04-05T03:28:10;8.50;;;6.25;;
50267;SDS011;36153;50.960;6.220;2023-04-05T03:31:12;10.15;;;6.72;;
50267;SDS011;36153;50.960;6.220;2023-04-05T03:34:12;9.43;;;6.63;;
50267;SDS011;36153;50.960;6.220;2023-04-05T03:37:13;10.82;;;5.60;;
50267;SDS011;36153;50.960;6.220;2023-04-05T03:40:13;9.75;;;6.53;;
50267;SDS011;36153;50.960;6.220;2023-04-05T03:43:13;11.02;;;6.22;;
50267;SDS011;36153;50.960;6.220;2023-04-05T03:46:14;9.95;;;6.30;;
50267;SDS011;36153;50.960;6.220;2023-04-05T03:49:15;10.52;;;5.97;;
50267;SDS011;36153;50.960;6.220;2023-04-05T03:52:15;9.05;;;5.22;;
50267;SDS011;36153;50.960;6.220;2023-04-05T03:55:16;11.07;;;5.57;;
50267;SDS011;36153;50.960;6.220;2023-04-05T03:58:16;8.35;;;5.00;;
50267;SDS011;36153;50.960;6.220;2023-04-05T04:01:16;10.50;;;4.70;;
50267;SDS011;36153;50.960;6.220;2023-04-05T04:04:17;11.27;;;5.63;;
50267;SDS011;36153;50.960;6.220;2023-04-05T04:07:17;9.27;;;5.82;;
50267;SDS011;36153;50.960;6.220;2023-04-05T04:10:18;9.15;;;5.50;;
50267;SDS011;36153;50.960;6.220;2023-04-05T04:13:18;11.82;;;8.65;;
50267;SDS011;36153;50.960;6.220;2023-04-05T04:16:18;12.38;;;7.50;;
50267;SDS011;36153;50.960;6.220;2023-04-05T04:19:19;11.07;;;7.05;;
50267;SDS011;36153;50.960;6.220;2023-04-05T04:22:19;8.80;;;5.75;;
50267;SDS011;36153;50.960;6.220;2023-04-05T04:25:20;8.32;;;5.40;;
50267;SDS011;36153;50.960;6.220;2023-04-05T04:28:21;7.93;;;6.03;;
50267;SDS011;36153;50.960;6.220;2023-04-05T04:31:24;9.30;;;5.68;;
50267;SDS011;36153;50.960;6.220;2023-04-05T04:34:24;12.25;;;6.07;;
50267;SDS011;36153;50.960;6.220;2023-04-05T04:37:24;7.47;;;4.53;;
50267;SDS011;36153;50.960;6.220;2023-04-05T04:40:29;8.80;;;5.07;;
50267;SDS011;36153;50.960;6.220;2023-04-05T04:43:40;8.95;;;5.60;;
50267;SDS011;36153;50.960;6.220;2023-04-05T04:46:44;7.90;;;5.43;;
50267;SDS011;36153;50.960;6.220;2023-04-05T04:49:44;11.32;;;5.85;;
50267;SDS011;36153;50.960;6.220;2023-04-05T04:52:45;9.77;;;7.00;;
50267;SDS011;36153;50.960;6.220;2023-04-05T04:55:46;11.65;;;8.68;;
50267;SDS011;36153;50.960;6.220;2023-04-05T04:58:49;8.70;;;6.20;;
50267;SDS011;36153;50.960;6.220;2023-04-05T05:01:49;7.15;;;5.28;;
50267;SDS011;36153;50.960;6.220;2023-04-05T05:04:50;9.85;;;5.43;;
50267;SDS011;36153;50.960;6.220;2023-04-05T05:07:50;12.30;;;6.72;;
50267;SDS011;36153;50.960;6.220;2023-04-05T05:10:51;8.55;;;6.82;;
50267;SDS011;36153;50.960;6.220;2023-04-05T05:13:52;13.90;;;6.00;;
50267;SDS011;36153;50.960;6.220;2023-04-05T05:16:52;15.18;;;6.35;;
50267;SDS011;36153;50.960;6.220;2023-04-05T05:19:53;8.82;;;6.25;;
50267;SDS011;36153;50.960;6.220;2023-04-05T05:22:54;8.20;;;5.22;;
50267;SDS011;36153;50.960;6.220;2023-04-05T05:25:57;8.30;;;5.72;;
50267;SDS011;36153;50.960;6.220;2023-04-05T05:29:01;6.68;;;5.70;;
50267;SDS011;36153;50.960;6.220;2023-04-05T05:32:02;10.15;;;6.28;;
50267;SDS011;36153;50.960;6.220;2023-04-05T05:35:02;8.98;;;5.30;;
50267;SDS011;36153;50.960;6.220;2023-04-05T05:38:03;8.77;;;5.80;;
50267;SDS011;36153;50.960;6.220;2023-04-05T05:41:03;7.80;;;4.70;;
50267;SDS011;36153;50.960;6.220;2023-04-05T05:44:05;10.80;;;6.47;;
50267;SDS011;36153;50.960;6.220;2023-04-05T05:47:05;8.98;;;5.82;;
50267;SDS011;36153;50.960;6.220;2023-04-05T05:50:06;7.00;;;5.55;;
50267;SDS011;36153;50.960;6.220;2023-04-05T05:53:08;15.45;;;5.80;;
50267;SDS011;36153;50.960;6.220;2023-04-05T05:56:08;8.55;;;5.40;;
50267;SDS011;36153;50.960;6.220;2023-04-05T05:59:08;14.15;;;5.68;;
50267;SDS011;36153;50.960;6.220;2023-04-05T06:02:09;13.38;;;6.63;;
50267;SDS011;36153;50.960;6.220;2023-04-05T06:05:09;9.32;;;6.88;;
50267;SDS011;36153;50.960;6.220;2023-04-05T06:08:10;8.98;;;5.82;;
50267;SDS011;36153;50.960;6.220;2023-04-05T06:11:19;6.85;;;5.32;;
50267;SDS011;36153;50.960;6.220;2023-04-05T06:14:22;8.55;;;5.75;;
50267;SDS011;36153;50.960;6.220;2023-04-05T06:17:23;11.75;;;6.47;;
50267;SDS011;36153;50.960;6.220;2023-04-05T06:20:23;11.68;;;6.95;;
50267;SDS011;36153;50.960;6.220;2023-04-05T06:23:23;7.68;;;5.38;;
50267;SDS011;36153;50.960;6.220;2023-04-05T06:26:24;11.85;;;6.35;;
50267;SDS011;36153;50.960;6.220;2023-04-05T06:29:27;15.57;;;6.65;;
50267;SDS011;36153;50.960;6.220;2023-04-05T06:32:27;11.98;;;6.70;;
50267;SDS011;36153;50.960;6.220;2023-04-05T06:35:28;20.40;;;11.48;;
50267;SDS011;36153;50.960;6.220;2023-04-05T06:38:28;12.88;;;7.53;;
50267;SDS011;36153;50.960;6.220;2023-04-05T06:41:29;12.15;;;7.18;;
50267;SDS011;36153;50.960;6.220;2023-04-05T06:44:29;10.73;;;7.95;;
50267;SDS011;36153;50.960;6.220;2023-04-05T06:47:33;18.30;;;7.72;;
50267;SDS011;36153;50.960;6.220;2023-04-05T06:50:37;15.38;;;8.27;;
50267;SDS011;36153;50.960;6.220;2023-04-05T06:53:39;10.32;;;6.80;;
50267;SDS011;36153;50.960;6.220;2023-04-05T06:56:40;10.50;;;7.10;;
50267;SDS011;36153;50.960;6.220;2023-04-05T06:59:40;11.90;;;7.28;;
50267;SDS011;36153;50.960;6.220;2023-04-05T07:02:41;13.70;;;6.45;;
50267;SDS011;36153;50.960;6.220;2023-04-05T07:05:51;12.27;;;5.80;;
50267;SDS011;36153;50.960;6.220;2023-04-05T07:08:58;8.75;;;5.53;;
50267;SDS011;36153;50.960;6.220;2023-04-05T07:11:59;12.00;;;6.75;;
50267;SDS011;36153;50.960;6.220;2023-04-05T07:15:01;11.70;;;7.28;;
50267;SDS011;36153;50.960;6.220;2023-04-05T07:18:01;12.40;;;7.03;;
50267;SDS011;36153;50.960;6.220;2023-04-05T07:21:01;13.45;;;6.57;;
50267;SDS011;36153;50.960;6.220;2023-04-05T07:24:03;11.70;;;7.00;;
50267;SDS011;36153;50.960;6.220;2023-04-05T07:27:03;13.05;;;7.55;;
50267;SDS011;36153;50.960;6.220;2023-04-05T07:30:04;10.88;;;6.95;;
50267;SDS011;36153;50.960;6.220;2023-04-05T07:33:05;13.23;;;6.20;;
50267;SDS011;36153;50.960;6.220;2023-04-05T07:36:05;11.30;;;7.30;;
50267;SDS011;36153;50.960;6.220;2023-04-05T07:39:06;15.18;;;7.25;;
50267;SDS011;36153;50.960;6.220;2023-04-05T07:42:06;14.07;;;7.10;;
50267;SDS011;36153;50.960;6.220;2023-04-05T07:45:07;10.07;;;7.10;;
50267;SDS011;36153;50.960;6.220;2023-04-05T07:48:07;9.48;;;6.78;;
50267;SDS011;36153;50.960;6.220;2023-04-05T07:51:08;7.28;;;5.80;;
50267;SDS011;36153;50.960;6.220;2023-04-05T07:54:10;11.07;;;7.35;;
50267;SDS011;36153;50.960;6.220;2023-04-05T07:57:17;10.88;;;7.65;;
50267;SDS011;36153;50.960;6.220;2023-04-05T08:00:18;12.48;;;5.82;;
50267;SDS011;36153;50.960;6.220;2023-04-05T08:03:19;12.93;;;7.25;;
50267;SDS011;36153;50.960;6.220;2023-04-05T08:06:19;12.82;;;6.97;;
50267;SDS011;36153;50.960;6.220;2023-04-05T08:09:20;11.23;;;6.90;;
50267;SDS011;36153;50.960;6.220;2023-04-05T08:12:20;12.52;;;6.80;;
50267;SDS011;36153;50.960;6.220;2023-04-05T08:15:21;14.95;;;7.03;;
50267;SDS011;36153;50.960;6.220;2023-04-05T08:18:21;8.02;;;6.40;;
50267;SDS011;36153;50.960;6.220;2023-04-05T08:21:22;9.55;;;5.43;;
50267;SDS011;36153;50.960;6.220;2023-04-05T08:24:22;9.75;;;6.70;;
50267;SDS011;36153;50.960;6.220;2023-04-05T08:27:23;10.23;;;6.22;;
50267;SDS011;36153;50.960;6.220;2023-04-05T08:30:23;11.32;;;7.32;;
50267;SDS011;36153;50.960;6.220;2023-04-05T08:33:24;14.15;;;6.35;;
50267;SDS011;36153;50.960;6.220;2023-04-05T08:36:32;12.73;;;7.05;;
50267;SDS011;36153;50.960;6.220;2023-04-05T08:39:33;10.25;;;6.53;;
50267;SDS011;36153;50.960;6.220;2023-04-05T08:42:45;12.02;;;6.65;;
50267;SDS011;36153;50.960;6.220;2023-04-05T08:46:02;10.82;;;6.90;;
50267;SDS011;36153;50.960;6.220;2023-04-05T08:49:05;10.20;;;7.10;;
50267;SDS011;36153;50.960;6.220;2023-04-05T08:52:07;8.93;;;6.80;;
50267;SDS011;36153;50.960;6.220;2023-04-05T08:55:07;9.60;;;6.53;;
50267;SDS011;36153;50.960;6.220;2023-04-05T08:58:12;8.70;;;6.45;;
50267;SDS011;36153;50.960;6.220;2023-04-05T09:01:13;10.50;;;6.45;;
50267;SDS011;36153;50.960;6.220;2023-04-05T09:04:16;9.48;;;6.13;;
50267;SDS011;36153;50.960;6.220;2023-04-05T09:07:19;11.68;;;6.65;;
50267;SDS011;36153;50.960;6.220;2023-04-05T09:10:20;9.07;;;6.13;;
50267;SDS011;36153;50.960;6.220;2023-04-05T09:13:22;12.50;;;6.68;;
50267;SDS011;36153;50.960;6.220;2023-04-05T09:16:22;10.77;;;6.85;;
50267;SDS011;36153;50.960;6.220;2023-04-05T09:19:24;8.02;;;5.15;;
50267;SDS011;36153;50.960;6.220;2023-04-05T09:22:25;11.63;;;6.30;;
50267;SDS011;36153;50.960;6.220;2023-04-05T09:25:39;12.02;;;6.63;;
50267;SDS011;36153;50.960;6.220;2023-04-05T09:28:41;15.07;;;7.65;;
50267;SDS011;36153;50.960;6.220;2023-04-05T09:31:42;12.52;;;7.53;;
50267;SDS011;36153;50.960;6.220;2023-04-05T09:34:44;16.00;;;6.55;;
50267;SDS011;36153;50.960;6.220;2023-04-05T09:37:51;12.40;;;7.05;;
50267;SDS011;36153;50.960;6.220;2023-04-05T09:40:53;12.15;;;6.50;;
50267;SDS011;36153;50.960;6.220;2023-04-05T09:43:53;16.42;;;8.13;;
50267;SDS011;36153;50.960;6.220;2023-04-05T09:46:54;11.18;;;7.53;;
50267;SDS011;36153;50.960;6.220;2023-04-05T09:49:54;14.52;;;7.75;;
50267;SDS011;36153;50.960;6.220;2023-04-05T09:53:04;9.80;;;6.85;;
50267;SDS011;36153;50.960;6.220;2023-04-05T09:56:08;12.50;;;7.45;;
50267;SDS011;36153;50.960;6.220;2023-04-05T09:59:12;12.57;;;7.85;;
50267;SDS011;36153;50.960;6.220;2023-04-05T10:02:12;10.43;;;7.00;;
50267;SDS011;36153;50.960;6.220;2023-04-05T10:05:13;13.68;;;7.45;;
50267;SDS011;36153;50.960;6.220;2023-04-05T10:08:14;11.23;;;7.03;;
50267;SDS011;36153;50.960;6.220;2023-04-05T10:11:17;11.68;;;7.68;;
50267;SDS011;36153;50.960;6.220;2023-04-05T10:14:17;13.07;;;7.47;;
50267;SDS011;36153;50.960;6.220;2023-04-05T10:20:30;12.98;;;8.38;;
50267;SDS011;36153;50.960;6.220;2023-04-05T10:23:38;11.40;;;6.80;;
50267;SDS011;36153;50.960;6.220;2023-04-05T10:30:04;9.98;;;6.03;;
50267;SDS011;36153;50.960;6.220;2023-04-05T10:33:09;11.50;;;6.28;;
50267;SDS011;36153;50.960;6.220;2023-04-05T10:39:39;11.60;;;7.55;;
50267;SDS011;36153;50.960;6.220;2023-04-05T10:42:43;8.23;;;5.63;;
50267;SDS011;36153;50.960;6.220;2023-04-05T10:45:46;9.40;;;6.28;;
50267;SDS011;36153;50.960;6.220;2023-04-05T10:48:53;13.13;;;6.15;;
50267;SDS011;36153;50.960;6.220;2023-04-05T10:52:03;7.72;;;5.53;;
50267;SDS011;36153;50.960;6.220;2023-04-05T10:55:05;10.25;;;6.32;;
50267;SDS011;36153;50.960;6.220;2023-04-05T10:58:05;10.82;;;6.82;;
50267;SDS011;36153;50.960;6.220;2023-04-05T11:01:06;8.35;;;4.78;;
50267;SDS011;36153;50.960;6.220;2023-04-05T11:04:14;6.38;;;5.00;;
50267;SDS011;36153;50.960;6.220;2023-04-05T11:07:16;8.20;;;5.50;;
50267;SDS011;36153;50.960;6.220;2023-04-05T11:10:18;9.20;;;4.90;;
50267;SDS011;36153;50.960;6.220;2023-04-05T11:13:19;7.20;;;4.60;;
50267;SDS011;36153;50.960;6.220;2023-04-05T11:16:20;5.65;;;3.65;;
50267;SDS011;36153;50.960;6.220;2023-04-05T11:22:47;7.50;;;5.82;;
50267;SDS011;36153;50.960;6.220;2023-04-05T11:25:54;9.77;;;5.68;;
50267;SDS011;36153;50.960;6.220;2023-04-05T11:28:58;8.55;;;5.35;;
50267;SDS011;36153;50.960;6.220;2023-04-05T11:32:05;11.43;;;5.85;;
50267;SDS011;36153;50.960;6.220;2023-04-05T11:35:17;8.90;;;5.38;;
50267;SDS011;36153;50.960;6.220;2023-04-05T11:38:24;8.48;;;6.38;;
50267;SDS011;36153;50.960;6.220;2023-04-05T11:41:24;10.13;;;6.57;;
50267;SDS011;36153;50.960;6.220;2023-04-05T11:44:42;9.48;;;6.45;;
50267;SDS011;36153;50.960;6.220;2023-04-05T11:47:45;11.02;;;6.40;;
50267;SDS011;36153;50.960;6.220;2023-04-05T11:50:45;8.57;;;5.95;;
50267;SDS011;36153;50.960;6.220;2023-04-05T11:53:47;8.48;;;6.10;;
50267;SDS011;36153;50.960;6.220;2023-04-05T11:56:50;9.82;;;6.22;;
50267;SDS011;36153;50.960;6.220;2023-04-05T11:59:51;11.05;;;7.32;;
50267;SDS011;36153;50.960;6.220;2023-04-05T12:02:55;8.50;;;6.38;;
50267;SDS011;36153;50.960;6.220;2023-04-05T12:05:57;10.40;;;6.05;;
50267;SDS011;36153;50.960;6.220;2023-04-05T12:08:58;10.02;;;6.90;;
50267;SDS011;36153;50.960;6.220;2023-04-05T12:11:58;10.35;;;6.20;;
50267;SDS011;36153;50.960;6.220;2023-04-05T12:14:59;8.38;;;5.82;;
50267;SDS011;36153;50.960;6.220;2023-04-05T12:18:01;9.52;;;6.30;;
50267;SDS011;36153;50.960;6.220;2023-04-05T12:21:01;13.02;;;6.18;;
50267;SDS011;36153;50.960;6.220;2023-04-05T12:24:03;10.30;;;6.45;;
50267;SDS011;36153;50.960;6.220;2023-04-05T12:27:04;9.18;;;6.90;;
50267;SDS011;36153;50.960;6.220;2023-04-05T12:30:12;9.00;;;6.13;;
50267;SDS011;36153;50.960;6.220;2023-04-05T12:33:14;10.98;;;6.65;;
50267;SDS011;36153;50.960;6.220;2023-04-05T12:36:15;10.50;;;6.75;;
50267;SDS011;36153;50.960;6.220;2023-04-05T12:39:15;10.38;;;5.95;;
50267;SDS011;36153;50.960;6.220;2023-04-05T12:42:18;9.77;;;6.28;;
50267;SDS011;36153;50.960;6.220;2023-04-05T12:45:22;10.30;;;6.55;;
50267;SDS011;36153;50.960;6.220;2023-04-05T12:48:23;7.95;;;6.20;;
50267;SDS011;36153;50.960;6.220;2023-04-05T12:51:24;10.02;;;6.18;;
50267;SDS011;36153;50.960;6.220;2023-04-05T12:54:25;9.77;;;6.53;;
50267;SDS011;36153;50.960;6.220;2023-04-05T12:57:32;10.15;;;6.43;;
50267;SDS011;36153;50.960;6.220;2023-04-05T13:00:32;11.10;;;7.18;;
50267;SDS011;36153;50.960;6.220;2023-04-05T13:03:33;8.70;;;6.97;;
50267;SDS011;36153;50.960;6.220;2023-04-05T13:06:34;9.27;;;6.30;;
50267;SDS011;36153;50.960;6.220;2023-04-05T13:09:34;9.05;;;6.03;;
50267;SDS011;36153;50.960;6.220;2023-04-05T13:12:36;11.75;;;5.70;;
50267;SDS011;36153;50.960;6.220;2023-04-05T13:15:36;8.27;;;6.00;;
50267;SDS011;36153;50.960;6.220;2023-04-05T13:18:36;9.32;;;7.10;;
50267;SDS011;36153;50.960;6.220;2023-04-05T13:21:37;9.77;;;5.95;;
50267;SDS011;36153;50.960;6.220;2023-04-05T13:24:37;9.70;;;5.97;;
50267;SDS011;36153;50.960;6.220;2023-04-05T13:27:38;13.07;;;7.35;;
50267;SDS011;36153;50.960;6.220;2023-04-05T13:30:40;9.43;;;6.25;;
50267;SDS011;36153;50.960;6.220;2023-04-05T13:33:59;9.98;;;6.57;;
50267;SDS011;36153;50.960;6.220;2023-04-05T13:37:25;10.27;;;6.45;;
50267;SDS011;36153;50.960;6.220;2023-04-05T13:41:09;8.30;;;6.38;;
50267;SDS011;36153;50.960;6.220;2023-04-05T13:47:38;11.70;;;7.20;;
50267;SDS011;36153;50.960;6.220;2023-04-05T13:50:41;9.18;;;6.28;;
50267;SDS011;36153;50.960;6.220;2023-04-05T13:56:42;9.07;;;7.00;;
50267;SDS011;36153;50.960;6.220;2023-04-05T13:59:43;11.00;;;7.60;;
50267;SDS011;36153;50.960;6.220;2023-04-05T14:02:43;14.32;;;7.72;;
50267;SDS011;36153;50.960;6.220;2023-04-05T14:05:44;10.73;;;6.25;;
50267;SDS011;36153;50.960;6.220;2023-04-05T14:08:44;8.48;;;6.80;;
50267;SDS011;36153;50.960;6.220;2023-04-05T14:11:45;9.18;;;5.53;;
50267;SDS011;36153;50.960;6.220;2023-04-05T14:14:45;9.60;;;6.10;;
50267;SDS011;36153;50.960;6.220;2023-04-05T14:17:45;9.50;;;6.65;;
50267;SDS011;36153;50.960;6.220;2023-04-05T14:20:46;8.45;;;6.03;;
50267;SDS011;36153;50.960;6.220;2023-04-05T14:23:46;8.75;;;6.97;;
50267;SDS011;36153;50.960;6.220;2023-04-05T14:26:49;9.30;;;6.82;;
50267;SDS011;36153;50.960;6.220;2023-04-05T14:29:50;8.60;;;6.53;;
50267;SDS011;36153;50.960;6.220;2023-04-05T14:32:51;9.40;;;6.70;;
50267;SDS011;36153;50.960;6.220;2023-04-05T14:35:52;9.50;;;6.82;;
50267;SDS011;36153;50.960;6.220;2023-04-05T14:38:52;8.90;;;6.32;;
50267;SDS011;36153;50.960;6.220;2023-04-05T14:41:53;12.55;;;6.90;;
50267;SDS011;36153;50.960;6.220;2023-04-05T14:44:53;12.88;;;7.85;;
50267;SDS011;36153;50.960;6.220;2023-04-05T14:47:54;9.18;;;7.13;;
50267;SDS011;36153;50.960;6.220;2023-04-05T14:50:55;10.63;;;7.32;;
50267;SDS011;36153;50.960;6.220;2023-04-05T14:53:55;10.52;;;7.13;;
50267;SDS011;36153;50.960;6.220;2023-04-05T14:56:56;9.65;;;7.20;;
50267;SDS011;36153;50.960;6.220;2023-04-05T14:59:57;10.90;;;7.25;;
50267;SDS011;36153;50.960;6.220;2023-04-05T15:02:57;14.77;;;9.65;;
50267;SDS011;36153;50.960;6.220;2023-04-05T15:05:58;13.30;;;8.05;;
50267;SDS011;36153;50.960;6.220;2023-04-05T15:08:58;12.07;;;7.43;;
50267;SDS011;36153;50.960;6.220;2023-04-05T15:11:59;10.60;;;7.78;;
50267;SDS011;36153;50.960;6.220;2023-04-05T15:14:59;10.73;;;7.90;;
50267;SDS011;36153;50.960;6.220;2023-04-05T15:18:01;12.98;;;7.10;;
50267;SDS011;36153;50.960;6.220;2023-04-05T15:21:02;10.82;;;7.05;;
50267;SDS011;36153;50.960;6.220;2023-04-05T15:24:02;13.55;;;8.07;;
50267;SDS011;36153;50.960;6.220;2023-04-05T15:27:03;10.98;;;7.45;;
50267;SDS011;36153;50.960;6.220;2023-04-05T15:30:03;11.15;;;7.22;;
50267;SDS011;36153;50.960;6.220;2023-04-05T15:33:04;8.70;;;7.05;;
50267;SDS011;36153;50.960;6.220;2023-04-05T15:36:05;11.57;;;7.50;;
50267;SDS011;36153;50.960;6.220;2023-04-05T15:39:06;12.10;;;7.70;;
50267;SDS011;36153;50.960;6.220;2023-04-05T15:42:06;10.85;;;8.05;;
50267;SDS011;36153;50.960;6.220;2023-04-05T15:45:07;11.20;;;7.57;;
50267;SDS011;36153;50.960;6.220;2023-04-05T15:48:07;10.05;;;8.30;;
50267;SDS011;36153;50.960;6.220;2023-04-05T15:51:08;14.38;;;8.43;;
50267;SDS011;36153;50.960;6.220;2023-04-05T15:54:08;12.25;;;8.07;;
50267;SDS011;36153;50.960;6.220;2023-04-05T15:57:09;12.35;;;7.25;;
50267;SDS011;36153;50.960;6.220;2023-04-05T16:00:10;11.75;;;7.78;;
50267;SDS011;36153;50.960;6.220;2023-04-05T16:03:11;11.65;;;8.05;;
50267;SDS011;36153;50.960;6.220;2023-04-05T16:06:11;12.57;;;8.70;;
50267;SDS011;36153;50.960;6.220;2023-04-05T16:09:12;14.88;;;8.60;;
50267;SDS011;36153;50.960;6.220;2023-04-05T16:12:12;12.25;;;8.05;;
50267;SDS011;36153;50.960;6.220;2023-04-05T16:15:12;9.77;;;8.20;;
50267;SDS011;36153;50.960;6.220;2023-04-05T16:18:13;12.90;;;8.27;;
50267;SDS011;36153;50.960;6.220;2023-04-05T16:21:13;13.10;;;7.88;;
50267;SDS011;36153;50.960;6.220;2023-04-05T16:24:15;9.20;;;7.13;;
50267;SDS011;36153;50.960;6.220;2023-04-05T16:27:15;12.10;;;9.02;;
50267;SDS011;36153;50.960;6.220;2023-04-05T16:30:16;14.68;;;8.43;;
50267;SDS011;36153;50.960;6.220;2023-04-05T16:33:17;11.02;;;8.85;;
50267;SDS011;36153;50.960;6.220;2023-04-05T16:36:17;11.57;;;7.10;;
50267;SDS011;36153;50.960;6.220;2023-04-05T16:39:17;13.75;;;8.88;;
50267;SDS011;36153;50.960;6.220;2023-04-05T16:42:18;14.27;;;9.80;;
50267;SDS011;36153;50.960;6.220;2023-04-05T16:45:18;10.75;;;8.55;;
50267;SDS011;36153;50.960;6.220;2023-04-05T16:48:19;11.93;;;9.02;;
50267;SDS011;36153;50.960;6.220;2023-04-05T16:51:21;14.15;;;8.68;;
50267;SDS011;36153;50.960;6.220;2023-04-05T16:54:23;11.95;;;8.93;;
50267;SDS011;36153;50.960;6.220;2023-04-05T16:57:26;16.17;;;9.55;;
50267;SDS011;36153;50.960;6.220;2023-04-05T17:00:28;13.02;;;8.40;;
50267;SDS011;36153;50.960;6.220;2023-04-05T17:03:30;13.75;;;9.18;;
50267;SDS011;36153;50.960;6.220;2023-04-05T17:06:31;16.25;;;8.48;;
50267;SDS011;36153;50.960;6.220;2023-04-05T17:09:32;14.05;;;10.15;;
50267;SDS011;36153;50.960;6.220;2023-04-05T17:12:33;11.30;;;8.45;;
50267;SDS011;36153;50.960;6.220;2023-04-05T17:15:35;15.75;;;8.18;;
50267;SDS011;36153;50.960;6.220;2023-04-05T17:18:37;16.60;;;8.02;;
50267;SDS011;36153;50.960;6.220;2023-04-05T17:21:38;12.07;;;8.27;;
50267;SDS011;36153;50.960;6.220;2023-04-05T17:24:48;11.57;;;9.32;;
50267;SDS011;36153;50.960;6.220;2023-04-05T17:27:48;11.68;;;8.85;;
50267;SDS011;36153;50.960;6.220;2023-04-05T17:30:48;11.70;;;8.55;;
50267;SDS011;36153;50.960;6.220;2023-04-05T17:33:49;11.75;;;8.40;;
50267;SDS011;36153;50.960;6.220;2023-04-05T17:36:49;15.65;;;7.95;;
50267;SDS011;36153;50.960;6.220;2023-04-05T17:39:51;11.07;;;8.23;;
50267;SDS011;36153;50.960;6.220;2023-04-05T17:42:52;11.48;;;8.98;;
50267;SDS011;36153;50.960;6.220;2023-04-05T17:45:52;12.32;;;8.93;;
50267;SDS011;36153;50.960;6.220;2023-04-05T17:48:53;13.93;;;9.70;;
50267;SDS011;36153;50.960;6.220;2023-04-05T17:51:54;11.40;;;7.68;;
50267;SDS011;36153;50.960;6.220;2023-04-05T17:54:54;12.95;;;8.40;;
50267;SDS011;36153;50.960;6.220;2023-04-05T17:57:54;13.32;;;8.82;;
50267;SDS011;36153;50.960;6.220;2023-04-05T18:00:55;16.25;;;8.35;;
50267;SDS011;36153;50.960;6.220;2023-04-05T18:03:55;11.05;;;8.18;;
50267;SDS011;36153;50.960;6.220;2023-04-05T18:06:56;14.23;;;8.65;;
50267;SDS011;36153;50.960;6.220;2023-04-05T18:09:56;13.05;;;8.80;;
50267;SDS011;36153;50.960;6.220;2023-04-05T18:12:57;14.05;;;8.15;;
50267;SDS011;36153;50.960;6.220;2023-04-05T18:15:57;13.77;;;9.05;;
50267;SDS011;36153;50.960;6.220;2023-04-05T18:18:58;12.27;;;8.90;;
50267;SDS011;36153;50.960;6.220;2023-04-05T18:21:59;13.48;;;9.23;;
50267;SDS011;36153;50.960;6.220;2023-04-05T18:24:59;17.20;;;9.32;;
50267;SDS011;36153;50.960;6.220;2023-04-05T18:27:59;12.95;;;8.63;;
50267;SDS011;36153;50.960;6.220;2023-04-05T18:31:00;14.40;;;9.50;;
50267;SDS011;36153;50.960;6.220;2023-04-05T18:34:00;17.10;;;8.75;;
50267;SDS011;36153;50.960;6.220;2023-04-05T18:37:03;15.40;;;9.38;;
50267;SDS011;36153;50.960;6.220;2023-04-05T18:40:04;17.80;;;10.90;;
50267;SDS011;36153;50.960;6.220;2023-04-05T18:43:05;22.63;;;11.57;;